Time;durP1;ratioP1;P1;durP2;ratioP2;P2;SDS_P1;SDS_P2;PMS_P1;PMS_P2;Temp;Humidity;BMP_temperature;BMP_pressure;BME280_temperature;BME280_humidity;BME280_pressure;Samples;Min_cycle;Max_cycle;Signal;HPM_P1;HPM_P2
2021/03/26 00:01:54;;;;;;;1999.90;999.90;;;7.40;88.40;;;;;;4983507;28;20047;-69
2021/03/26 00:04:21;;;;;;;1999.90;999.90;;;7.50;88.40;;;;;;4981539;28;20062;-69
2021/03/26 00:06:49;;;;;;;1999.90;999.90;;;7.50;90.40;;;;;;4984264;28;20141;-70
2021/03/26 00:09:18;;;;;;;1999.90;999.90;;;7.60;90.40;;;;;;4981244;28;20062;-69
2021/03/26 00:11:46;;;;;;;1999.90;999.90;;;7.60;89.50;;;;;;4980932;28;20064;-69
2021/03/26 00:14:13;;;;;;;1999.90;999.90;;;7.60;90.50;;;;;;5079332;27;20057;-70
2021/03/26 00:16:40;;;;;;;1999.90;999.90;;;7.60;89.50;;;;;;4985794;28;20050;-69
2021/03/26 00:19:06;;;;;;;1999.90;999.90;;;7.60;90.40;;;;;;4980239;28;20231;-69
2021/03/26 00:21:33;;;;;;;1999.90;999.90;;;7.60;90.10;;;;;;4986038;28;20056;-70
2021/03/26 00:24:00;;;;;;;1999.90;999.90;;;7.60;90.00;;;;;;4987495;28;20478;-69
2021/03/26 00:26:26;;;;;;;1999.90;999.90;;;7.70;90.20;;;;;;4976979;28;20054;-70
2021/03/26 00:29:02;;;;;;;1999.90;999.90;;;7.70;89.80;;;;;;4979460;28;20089;-69
2021/03/26 00:31:28;;;;;;;1999.90;999.90;;;7.70;90.10;;;;;;4986260;28;20493;-70
2021/03/26 00:33:54;;;;;;;1999.90;999.90;;;7.70;90.00;;;;;;4985208;28;20725;-70
2021/03/26 00:36:20;;;;;;;1999.90;999.90;;;7.70;90.30;;;;;;4983801;28;20053;-70
2021/03/26 00:38:46;;;;;;;1999.90;999.90;;;7.70;90.30;;;;;;4985423;28;20177;-70
2021/03/26 00:41:13;;;;;;;1999.90;999.90;;;7.70;91.50;;;;;;4985245;28;20062;-70
2021/03/26 00:43:39;;;;;;;1999.90;999.90;;;7.70;90.80;;;;;;4978259;28;20417;-69
2021/03/26 00:46:05;;;;;;;1999.90;999.90;;;7.70;90.70;;;;;;4984660;28;20125;-69
2021/03/26 00:48:31;;;;;;;1999.90;999.90;;;7.70;90.50;;;;;;4985996;28;20058;-70
2021/03/26 00:51:00;;;;;;;1999.90;999.90;;;7.60;90.80;;;;;;4983945;28;20046;-70
2021/03/26 00:53:33;;;;;;;1999.90;999.90;;;7.60;90.40;;;;;;4981239;28;20469;-70
2021/03/26 00:56:00;;;;;;;1999.90;999.90;;;7.60;90.60;;;;;;4988523;28;20044;-70
2021/03/26 00:58:26;;;;;;;1999.90;999.90;;;7.50;90.40;;;;;;4981654;28;20037;-70
2021/03/26 01:00:54;;;;;;;1999.90;999.90;;;7.50;90.50;;;;;;4980335;28;20574;-70
2021/03/26 01:03:22;;;;;;;1999.90;999.90;;;7.40;90.30;;;;;;4980446;28;20399;-69
2021/03/26 01:05:55;;;;;;;1999.90;999.90;;;7.40;90.30;;;;;;5080565;28;20054;-69
2021/03/26 01:08:22;;;;;;;1999.90;999.90;;;7.40;90.70;;;;;;4982995;28;20323;-69
2021/03/26 01:10:52;;;;;;;1999.90;999.90;;;7.30;90.70;;;;;;4981928;28;20149;-69
2021/03/26 01:13:18;;;;;;;1999.90;999.90;;;7.30;90.70;;;;;;4985933;28;20054;-69
2021/03/26 01:15:46;;;;;;;1999.90;999.90;;;7.30;90.60;;;;;;4981213;28;20045;-69
2021/03/26 01:18:21;;;;;;;1999.90;999.90;;;7.30;90.70;;;;;;4979034;28;20413;-69
2021/03/26 01:20:49;;;;;;;1999.90;999.90;;;7.20;90.50;;;;;;4979147;28;20038;-69
2021/03/26 01:23:15;;;;;;;1999.90;999.90;;;7.20;91.60;;;;;;5079298;28;23390;-70
2021/03/26 01:25:43;;;;;;;1999.90;999.90;;;7.10;91.40;;;;;;4984239;28;20049;-69
2021/03/26 01:28:15;;;;;;;1999.90;999.90;;;7.10;90.80;;;;;;4981838;28;20103;-70
2021/03/26 01:30:42;;;;;;;1999.90;999.90;;;7.10;91.70;;;;;;4984428;28;20046;-69
2021/03/26 01:33:09;;;;;;;1999.90;999.90;;;7.10;93.30;;;;;;4982291;28;20494;-70
2021/03/26 01:35:38;;;;;;;1999.90;999.90;;;7.10;93.00;;;;;;4983713;28;20038;-69
2021/03/26 01:38:08;;;;;;;1999.90;999.90;;;7.10;93.10;;;;;;4982513;28;20095;-69
2021/03/26 01:40:46;;;;;;;1999.90;999.90;;;7.10;93.30;;;;;;4984150;28;20050;-70
2021/03/26 01:43:19;;;;;;;1999.90;999.90;;;7.10;92.40;;;;;;4983586;28;20521;-70
2021/03/26 01:45:45;;;;;;;1999.90;999.90;;;7.00;92.90;;;;;;4982121;28;20156;-69
2021/03/26 01:48:19;;;;;;;1999.90;999.90;;;7.00;93.80;;;;;;4984816;28;20070;-70
2021/03/26 01:50:45;;;;;;;1999.90;999.90;;;7.00;93.20;;;;;;4982651;28;20055;-69
2021/03/26 01:53:11;;;;;;;1999.90;999.90;;;7.00;93.10;;;;;;4981257;28;20051;-70
2021/03/26 01:55:44;;;;;;;1999.90;999.90;;;6.90;94.40;;;;;;4982929;28;20074;-70
2021/03/26 01:58:15;;;;;;;1999.90;999.90;;;6.90;95.10;;;;;;4981971;28;20042;-69
2021/03/26 02:00:52;;;;;;;1999.90;999.90;;;6.90;94.60;;;;;;4988064;28;20465;-69
2021/03/26 02:03:30;;;;;;;1999.90;999.90;;;6.90;94.70;;;;;;4981730;28;20050;-69
2021/03/26 02:06:03;;;;;;;1999.90;999.90;;;6.80;94.90;;;;;;5002435;28;20447;-69
2021/03/26 02:08:40;;;;;;;1999.90;999.90;;;6.80;94.30;;;;;;5004703;28;20323;-69
2021/03/26 02:11:26;;;;;;;1999.90;999.90;;;6.80;94.70;;;;;;5006120;28;20060;-69
2021/03/26 02:13:53;;;;;;;1999.90;999.90;;;6.80;95.00;;;;;;4998895;28;20151;-69
2021/03/26 02:16:21;;;;;;;1999.90;999.90;;;6.80;93.80;;;;;;4982523;28;20044;-69
2021/03/26 02:18:48;;;;;;;1999.90;999.90;;;6.80;96.30;;;;;;5003823;28;20045;-69
2021/03/26 02:21:24;;;;;;;1999.90;999.90;;;6.80;94.40;;;;;;5005463;28;20054;-69
2021/03/26 02:23:53;;;;;;;1999.90;999.90;;;6.80;95.20;;;;;;4983328;28;20129;-69
2021/03/26 02:26:28;;;;;;;1999.90;999.90;;;6.80;94.00;;;;;;5000684;28;20061;-69
2021/03/26 02:28:56;;;;;;;1999.90;999.90;;;6.80;93.80;;;;;;4984601;28;20041;-69
2021/03/26 02:31:23;;;;;;;1999.90;999.90;;;6.80;94.00;;;;;;5008226;28;20062;-69
2021/03/26 02:33:50;;;;;;;1999.90;999.90;;;6.80;95.20;;;;;;4990144;28;20084;-69
2021/03/26 02:36:17;;;;;;;1999.90;999.90;;;6.80;93.70;;;;;;5008868;28;20049;-69
2021/03/26 02:38:58;;;;;;;1999.90;999.90;;;6.80;93.50;;;;;;4986975;28;20072;-69
2021/03/26 02:41:33;;;;;;;1999.90;999.90;;;6.80;94.00;;;;;;5006626;28;20038;-69
2021/03/26 02:44:20;;;;;;;1999.90;999.90;;;6.80;95.00;;;;;;5005972;28;20401;-69
2021/03/26 02:46:51;;;;;;;1999.90;999.90;;;6.80;95.20;;;;;;5006410;28;20065;-69
2021/03/26 02:49:44;;;;;;;1999.90;999.90;;;6.80;95.40;;;;;;5008166;28;20049;-69
2021/03/26 02:52:25;;;;;;;1999.90;999.90;;;6.80;96.40;;;;;;5003047;28;20060;-69
2021/03/26 02:55:08;;;;;;;1999.90;999.90;;;6.80;96.00;;;;;;5006026;28;20053;-70
2021/03/26 02:57:43;;;;;;;1999.90;999.90;;;6.80;95.20;;;;;;4983017;28;20042;-69
2021/03/26 03:00:28;;;;;;;1999.90;999.90;;;6.80;95.80;;;;;;4989022;28;20129;-69
2021/03/26 03:02:57;;;;;;;1999.90;999.90;;;6.80;95.90;;;;;;4985211;28;20046;-69
2021/03/26 03:05:35;;;;;;;1999.90;999.90;;;6.90;97.20;;;;;;5007664;28;20110;-69
2021/03/26 03:08:05;;;;;;;;;;;6.90;98.10;;;;;;5007489;28;20056;-69
2021/03/26 03:10:47;;;;;;;1999.90;999.90;;;6.90;97.30;;;;;;5006851;28;19929;-70
2021/03/26 03:13:43;;;;;;;1999.90;999.90;;;6.90;97.40;;;;;;4982680;28;20058;-69
2021/03/26 03:16:20;;;;;;;1999.90;999.90;;;7.00;97.70;;;;;;5002583;28;20050;-69
2021/03/26 03:19:15;;;;;;;1999.90;999.90;;;7.00;97.10;;;;;;5009075;28;20704;-69
2021/03/26 03:21:52;;;;;;;1999.90;999.90;;;7.00;97.40;;;;;;5009928;28;20053;-69
2021/03/26 03:24:26;;;;;;;1999.90;999.90;;;7.00;97.40;;;;;;4997846;28;20133;-69
2021/03/26 03:27:22;;;;;;;1999.90;999.90;;;7.10;98.10;;;;;;4986787;28;20057;-69
2021/03/26 03:30:07;;;;;;;1999.90;999.90;;;7.10;96.70;;;;;;5006654;28;20046;-69
2021/03/26 03:32:55;;;;;;;1999.90;999.90;;;7.10;96.60;;;;;;5002683;28;20093;-69
2021/03/26 03:35:38;;;;;;;1999.90;999.90;;;7.10;98.30;;;;;;4987176;28;20128;-70
2021/03/26 03:38:21;;;;;;;1999.90;999.90;;;7.10;96.90;;;;;;5001295;28;20046;-69
2021/03/26 03:41:00;;;;;;;1999.90;999.90;;;7.10;96.80;;;;;;5003939;28;20128;-69
2021/03/26 03:44:01;;;;;;;1999.90;999.90;;;7.10;96.90;;;;;;5008536;28;20496;-69
2021/03/26 03:47:04;;;;;;;1999.90;999.90;;;7.10;97.60;;;;;;4983646;28;20046;-69
2021/03/26 03:49:34;;;;;;;1999.90;999.90;;;7.10;97.50;;;;;;4995848;28;20049;-69
2021/03/26 03:52:43;;;;;;;1999.90;999.90;;;7.10;97.60;;;;;;5001393;28;20118;-70
2021/03/26 03:55:11;;;;;;;1999.90;999.90;;;7.10;98.20;;;;;;5011052;28;20446;-69
2021/03/26 03:57:45;;;;;;;1999.90;999.90;;;7.10;98.50;;;;;;5006792;28;20136;-70
2021/03/26 04:00:20;;;;;;;1999.90;999.90;;;7.20;98.70;;;;;;5007911;28;20436;-70
2021/03/26 04:02:58;;;;;;;1999.90;999.90;;;7.20;99.70;;;;;;4985629;28;20052;-71
2021/03/26 04:05:37;;;;;;;1999.90;999.90;;;7.30;99.00;;;;;;5005615;28;20515;-69
2021/03/26 04:08:33;;;;;;;1999.90;999.90;;;7.30;98.00;;;;;;5002836;28;21524;-69
2021/03/26 04:11:20;;;;;;;1999.90;999.90;;;7.30;98.20;;;;;;5002103;28;20046;-69
2021/03/26 04:14:22;;;;;;;1999.90;999.90;;;7.30;97.80;;;;;;5003931;28;20054;-69
2021/03/26 04:17:41;;;;;;;1999.90;999.90;;;7.30;99.70;;;;;;5004957;28;20480;-69
2021/03/26 04:20:17;;;;;;;1999.90;999.90;;;7.40;99.30;;;;;;5012313;28;20049;-69
2021/03/26 04:22:51;;;;;;;1999.90;999.90;;;7.40;98.30;;;;;;4998380;28;20520;-69
2021/03/26 04:25:26;;;;;;;1999.90;999.90;;;7.40;98.40;;;;;;5001401;28;20046;-69
2021/03/26 04:28:28;;;;;;;1999.90;999.90;;;7.50;98.50;;;;;;4986020;28;20050;-69
2021/03/26 04:31:01;;;;;;;1999.90;999.90;;;7.50;98.30;;;;;;4986526;28;20042;-69
2021/03/26 04:33:28;;;;;;;1999.90;999.90;;;7.50;98.10;;;;;;5004863;28;20061;-70
2021/03/26 04:35:59;;;;;;;1999.90;999.90;;;7.50;98.60;;;;;;4982523;28;20389;-69
2021/03/26 04:38:41;;;;;;;1999.90;999.90;;;7.50;99.90;;;;;;5002604;28;20221;-69
2021/03/26 04:41:22;;;;;;;1999.90;999.90;;;7.60;99.90;;;;;;5003184;28;20425;-69
2021/03/26 04:44:03;;;;;;;1999.90;999.90;;;7.60;99.50;;;;;;5002738;28;20046;-69
2021/03/26 04:46:45;;;;;;;1999.90;999.90;;;7.60;99.90;;;;;;5003632;28;20130;-69
2021/03/26 04:49:20;;;;;;;1999.90;999.90;;;7.60;99.60;;;;;;4999356;28;20837;-70
2021/03/26 04:51:50;;;;;;;1999.90;999.90;;;7.70;99.90;;;;;;5002537;28;20345;-69
2021/03/26 04:54:58;;;;;;;1999.90;999.90;;;7.70;99.90;;;;;;4986731;28;20051;-69
2021/03/26 04:57:31;;;;;;;1999.90;999.90;;;7.70;99.90;;;;;;5003179;28;20057;-69
2021/03/26 05:00:23;;;;;;;1999.90;999.90;;;7.70;99.90;;;;;;5003610;28;20053;-70
2021/03/26 05:03:01;;;;;;;1999.90;999.90;;;7.70;99.90;;;;;;4999110;28;20046;-69
2021/03/26 05:05:32;;;;;;;1999.90;999.90;;;7.80;99.90;;;;;;4987800;28;20512;-69
2021/03/26 05:08:04;;;;;;;1999.90;999.90;;;7.70;99.90;;;;;;4993930;28;20054;-70
2021/03/26 05:10:33;;;;;;;1999.90;999.90;;;7.80;99.90;;;;;;5000550;28;20056;-69
2021/03/26 05:13:08;;;;;;;1999.90;999.90;;;7.80;99.90;;;;;;4981838;28;20093;-69
2021/03/26 05:15:43;;;;;;;1999.90;999.90;;;7.80;99.90;;;;;;4996177;28;20068;-69
2021/03/26 05:18:40;;;;;;;1999.90;999.90;;;7.80;99.90;;;;;;4977184;28;20050;-69
2021/03/26 05:21:17;;;;;;;1999.90;999.90;;;7.80;99.90;;;;;;4993709;28;20124;-70
2021/03/26 05:23:51;;;;;;;1999.90;999.90;;;7.80;99.90;;;;;;4997355;28;20502;-69
2021/03/26 05:26:18;;;;;;;1999.90;999.90;;;7.80;99.90;;;;;;4980442;28;20045;-69
2021/03/26 05:28:46;;;;;;;1999.90;999.90;;;7.80;99.90;;;;;;4994848;28;20050;-70
2021/03/26 05:31:38;;;;;;;1999.90;999.90;;;7.80;99.90;;;;;;5000144;28;20046;-69
2021/03/26 05:34:25;;;;;;;1999.90;999.90;;;7.80;99.90;;;;;;4983535;28;20602;-69
2021/03/26 05:37:01;;;;;;;1999.90;999.90;;;7.80;99.90;;;;;;4988996;28;20120;-70
2021/03/26 05:39:32;;;;;;;1999.90;999.90;;;7.80;99.90;;;;;;5075688;27;20049;-70
2021/03/26 05:42:27;;;;;;;1999.90;999.90;;;7.80;99.90;;;;;;4991543;28;20162;-69
2021/03/26 05:45:12;;;;;;;1999.90;999.90;;;7.80;99.90;;;;;;5005589;28;20045;-69
2021/03/26 05:48:21;;;;;;;1999.90;999.90;;;7.90;99.90;;;;;;5005701;28;20050;-69
2021/03/26 05:50:53;;;;;;;1999.90;999.90;;;7.90;99.90;;;;;;4997093;28;20461;-69
2021/03/26 05:53:34;;;;;;;1999.90;999.90;;;7.90;99.90;;;;;;4996743;28;20124;-70
2021/03/26 05:56:39;;;;;;;1999.90;999.90;;;7.90;99.90;;;;;;5077126;27;20050;-69
2021/03/26 05:59:30;;;;;;;1999.90;999.90;;;7.90;99.90;;;;;;5003279;28;20056;-69
2021/03/26 06:02:17;;;;;;;1999.90;999.90;;;7.90;99.90;;;;;;5006823;28;20083;-69
2021/03/26 06:05:01;;;;;;;1999.90;999.90;;;8.00;99.90;;;;;;4985462;28;20074;-69
2021/03/26 06:07:52;;;;;;;1999.90;999.90;;;8.00;99.90;;;;;;4999194;28;20505;-69
2021/03/26 06:10:25;;;;;;;1999.90;999.90;;;8.00;99.90;;;;;;4999006;28;20042;-69
2021/03/26 06:12:51;;;;;;;1999.90;999.90;;;8.00;99.90;;;;;;4997597;28;20049;-69
2021/03/26 06:15:53;;;;;;;1999.90;999.90;;;8.00;99.90;;;;;;4995696;28;20062;-69
2021/03/26 06:18:31;;;;;;;1999.90;999.90;;;8.00;99.90;;;;;;4986371;28;20058;-69
2021/03/26 06:21:13;;;;;;;1999.90;999.90;;;8.10;99.90;;;;;;5000835;28;20465;-69
2021/03/26 06:24:04;;;;;;;1999.90;999.90;;;8.10;99.90;;;;;;4997321;28;22554;-69
2021/03/26 06:27:09;;;;;;;1999.90;999.90;;;8.10;99.90;;;;;;4999801;28;20065;-69
2021/03/26 06:29:45;;;;;;;1999.90;999.90;;;8.10;99.90;;;;;;4993847;28;20067;-69
2021/03/26 06:32:37;;;;;;;1999.90;999.90;;;8.10;99.90;;;;;;4977331;28;20050;-69
2021/03/26 06:35:27;;;;;;;1999.90;999.90;;;8.10;99.90;;;;;;4989257;28;20057;-69
2021/03/26 06:38:16;;;;;;;1999.90;999.90;;;8.10;99.90;;;;;;4997176;28;20495;-69
2021/03/26 06:40:56;;;;;;;1999.90;999.90;;;8.10;99.90;;;;;;5003115;28;20062;-69
2021/03/26 06:43:23;;;;;;;1999.90;999.90;;;8.20;99.90;;;;;;4980286;28;20058;-69
2021/03/26 06:46:02;;;;;;;1999.90;999.90;;;8.20;99.90;;;;;;4998836;28;20049;-69
2021/03/26 06:49:00;;;;;;;1999.90;999.90;;;8.20;99.90;;;;;;4974456;28;20784;-69
2021/03/26 06:51:38;;;;;;;1999.90;999.90;;;8.20;99.90;;;;;;4995139;28;20051;-69
2021/03/26 06:54:10;;;;;;;1999.90;999.90;;;8.30;99.90;;;;;;5003741;28;20376;-69
2021/03/26 06:57:05;;;;;;;1999.90;999.90;;;8.30;99.90;;;;;;4986307;28;20137;-69
2021/03/26 06:59:53;;;;;;;1999.90;999.90;;;8.40;99.90;;;;;;4996196;28;20042;-69
2021/03/26 07:02:40;;;;;;;1999.90;999.90;;;8.40;99.90;;;;;;4997597;28;20133;-69
2021/03/26 07:05:12;;;;;;;1999.90;999.90;;;8.50;99.90;;;;;;4998087;28;20141;-69
2021/03/26 07:07:54;;;;;;;1999.90;999.90;;;8.50;99.90;;;;;;4998531;28;20065;-69
2021/03/26 07:10:32;;;;;;;1999.90;999.90;;;8.50;99.90;;;;;;5000700;28;20054;-69
2021/03/26 07:13:03;;;;;;;1999.90;999.90;;;8.60;99.90;;;;;;5003665;28;20047;-69
2021/03/26 07:15:49;;;;;;;1999.90;999.90;;;8.60;99.90;;;;;;5008675;28;20438;-69
2021/03/26 07:18:24;;;;;;;1999.90;999.90;;;8.60;99.90;;;;;;4991905;28;20038;-69
2021/03/26 07:21:19;;;;;;;1999.90;999.90;;;8.70;99.90;;;;;;5005745;28;20099;-69
2021/03/26 07:24:24;;;;;;;1999.90;999.90;;;8.70;99.90;;;;;;4999944;28;20045;-69
2021/03/26 07:27:06;;;;;;;1999.90;999.90;;;8.80;99.90;;;;;;4996854;28;20061;-69
2021/03/26 07:29:53;;;;;;;1999.90;999.90;;;8.90;99.90;;;;;;4991104;28;20437;-70
2021/03/26 07:32:31;;;;;;;1999.90;999.90;;;8.90;99.90;;;;;;4998392;28;20046;-70
2021/03/26 07:35:36;;;;;;;1999.90;999.90;;;9.00;99.90;;;;;;5086251;27;20069;-69
2021/03/26 07:38:35;;;;;;;1999.90;999.90;;;9.00;99.90;;;;;;4986769;28;20081;-70
2021/03/26 07:41:31;;;;;;;1999.90;999.90;;;9.10;99.90;;;;;;4999525;28;20042;-70
2021/03/26 07:44:18;;;;;;;1999.90;999.90;;;9.30;99.90;;;;;;4998255;28;20050;-69
2021/03/26 07:47:05;;;;;;;1999.90;999.90;;;9.40;99.90;;;;;;4997218;28;20384;-69
2021/03/26 07:49:37;;;;;;;1999.90;999.90;;;9.60;99.90;;;;;;5001242;28;20375;-69
2021/03/26 07:52:32;;;;;;;1999.90;999.90;;;9.60;99.90;;;;;;5001880;28;20050;-70
2021/03/26 07:55:25;;;;;;;1999.90;999.90;;;9.60;99.90;;;;;;5003430;28;20361;-69
2021/03/26 07:58:09;;;;;;;1999.90;999.90;;;9.60;99.90;;;;;;5001312;28;20061;-69
2021/03/26 08:00:59;;;;;;;1999.90;999.90;;;9.70;99.90;;;;;;5003519;28;20636;-69
2021/03/26 08:03:39;;;;;;;1999.90;999.90;;;9.80;99.90;;;;;;4998373;28;20053;-70
2021/03/26 08:06:24;;;;;;;1999.90;999.90;;;9.90;99.90;;;;;;5002862;28;20045;-69
2021/03/26 08:09:08;;;;;;;1999.90;999.90;;;10.00;99.90;;;;;;4997745;28;20060;-69
2021/03/26 08:11:58;;;;;;;1999.90;999.90;;;10.10;99.90;;;;;;4997732;28;20038;-69
2021/03/26 08:14:47;;;;;;;1999.90;999.90;;;10.20;99.90;;;;;;4999125;28;20046;-69
2021/03/26 08:17:18;;;;;;;1999.90;999.90;;;10.30;99.90;;;;;;4985784;28;20385;-69
2021/03/26 08:19:55;;;;;;;1999.90;999.90;;;10.30;99.90;;;;;;4986459;28;20046;-69
2021/03/26 08:22:43;;;;;;;1999.90;999.90;;;10.40;99.90;;;;;;4998281;28;20411;-69
2021/03/26 08:25:18;;;;;;;1999.90;999.90;;;10.40;99.90;;;;;;4996170;28;20068;-70
2021/03/26 08:42:50;;;;;;;1999.90;999.90;;;10.80;99.90;;;;;;4995762;28;20040;-69
2021/03/26 08:45:30;;;;;;;1999.90;999.90;;;11.00;99.90;;;;;;5006279;28;20042;-69
2021/03/26 08:48:18;;;;;;;1999.90;999.90;;;11.00;99.90;;;;;;4985812;28;20050;-69
2021/03/26 08:51:09;;;;;;;1999.90;999.90;;;11.10;99.90;;;;;;5001331;28;20414;-70
2021/03/26 08:54:05;;;;;;;1999.90;999.90;;;11.20;99.90;;;;;;5002087;28;20093;-69
2021/03/26 08:56:44;;;;;;;1999.90;999.90;;;11.30;99.90;;;;;;5094605;27;20120;-69
2021/03/26 08:59:23;;;;;;;1999.90;999.90;;;11.30;99.90;;;;;;5001119;28;20057;-69
2021/03/26 09:02:41;;;;;;;1999.90;999.90;;;11.40;99.90;;;;;;4998119;28;20385;-69
2021/03/26 09:05:32;;;;;;;1999.90;999.90;;;11.40;99.90;;;;;;4979914;28;20101;-69
2021/03/26 09:08:13;;;;;;;1999.90;999.90;;;11.50;99.90;;;;;;5001075;28;20136;-69
2021/03/26 09:11:00;;;;;;;1999.90;999.90;;;11.70;99.90;;;;;;5000923;28;20053;-69
2021/03/26 09:14:09;;;;;;;1999.90;999.90;;;11.80;99.90;;;;;;4998596;28;20045;-70
2021/03/26 09:16:39;;;;;;;1999.90;999.90;;;12.00;99.90;;;;;;4999458;28;20179;-69
2021/03/26 09:19:16;;;;;;;1999.90;999.90;;;12.10;99.90;;;;;;4998401;28;20042;-69
2021/03/26 09:21:59;;;;;;;1999.90;999.90;;;12.10;99.90;;;;;;4997031;28;20068;-70
2021/03/26 09:24:35;;;;;;;1999.90;999.90;;;12.20;99.90;;;;;;5006361;28;20131;-70
2021/03/26 09:27:17;;;;;;;1999.90;999.90;;;12.30;99.90;;;;;;4988306;28;21814;-69
2021/03/26 09:30:04;;;;;;;1999.90;999.90;;;12.30;99.90;;;;;;5005896;28;20152;-69
2021/03/26 09:32:55;;;;;;;1999.90;999.90;;;12.50;99.90;;;;;;4993577;28;20052;-70
2021/03/26 09:35:41;;;;;;;1999.90;999.90;;;12.50;99.90;;;;;;5007749;28;20137;-70
2021/03/26 09:38:30;;;;;;;1999.90;999.90;;;12.70;99.90;;;;;;5006380;28;20504;-70
2021/03/26 09:41:07;;;;;;;1999.90;999.90;;;12.80;99.90;;;;;;4986468;28;20054;-70
2021/03/26 09:43:49;;;;;;;1999.90;999.90;;;13.00;99.90;;;;;;5002664;28;20057;-69
2021/03/26 09:46:37;;;;;;;1999.90;999.90;;;13.20;99.90;;;;;;5002853;28;20147;-69
2021/03/26 09:49:25;;;;;;;1999.90;999.90;;;13.30;99.90;;;;;;4988129;28;20046;-71
2021/03/26 09:51:59;;;;;;;1999.90;999.90;;;13.50;99.90;;;;;;5007391;28;20045;-70
2021/03/26 09:54:41;;;;;;;1999.90;999.90;;;13.50;99.90;;;;;;5002171;28;20042;-69
2021/03/26 09:57:26;;;;;;;1999.90;999.90;;;13.60;99.90;;;;;;5003745;28;20473;-69
2021/03/26 10:00:20;;;;;;;1999.90;999.90;;;13.70;99.90;;;;;;4998680;28;20050;-70
2021/03/26 10:03:10;;;;;;;1999.90;999.90;;;13.90;99.90;;;;;;5003624;28;20533;-70
2021/03/26 10:06:04;;;;;;;1999.90;999.90;;;14.10;99.90;;;;;;5004174;28;20145;-70
2021/03/26 10:11:07;;;;;;;1999.90;999.90;;;14.00;99.90;;;;;;5004194;28;20086;-70
2021/03/26 10:13:45;;;;;;;1999.90;999.90;;;13.70;99.90;;;;;;4998774;28;20050;-69
2021/03/26 10:16:16;;;;;;;1999.90;999.90;;;13.70;99.90;;;;;;5003608;28;20054;-70
2021/03/26 10:18:47;;;;;;;1999.90;999.90;;;13.50;99.90;;;;;;5006224;28;20042;-69
2021/03/26 10:21:22;;;;;;;1999.90;999.90;;;13.40;99.90;;;;;;5000467;28;20142;-69
2021/03/26 10:23:58;;;;;;;1999.90;999.90;;;13.40;99.90;;;;;;5002719;28;20084;-69
2021/03/26 10:26:50;;;;;;;1999.90;999.90;;;13.20;99.90;;;;;;5005276;28;20057;-70
2021/03/26 10:29:41;;;;;;;1999.90;999.90;;;13.20;99.90;;;;;;5003132;28;20058;-70
2021/03/26 10:32:28;;;;;;;1999.90;999.90;;;13.40;99.90;;;;;;4992630;28;20050;-70
2021/03/26 10:34:58;;;;;;;1999.90;999.90;;;13.70;99.90;;;;;;5009574;28;20046;-70
2021/03/26 10:37:54;;;;;;;1999.90;999.90;;;14.00;99.90;;;;;;4984446;28;20059;-69
2021/03/26 10:40:29;;;;;;;1999.90;999.90;;;14.20;99.60;;;;;;5000497;28;20056;-69
2021/03/26 10:43:22;;;;;;;1999.90;999.90;;;14.10;99.10;;;;;;5001609;28;20052;-70
2021/03/26 10:46:17;;;;;;;1999.90;999.90;;;13.90;98.50;;;;;;5003176;28;20064;-70
2021/03/26 10:49:04;;;;;;;1999.90;999.90;;;13.80;98.80;;;;;;5003573;28;20056;-69
2021/03/26 10:51:48;;;;;;;1999.90;999.90;;;13.90;99.10;;;;;;5002540;28;20046;-70
2021/03/26 10:54:27;;;;;;;1999.90;999.90;;;14.00;99.90;;;;;;5000880;28;20057;-70
2021/03/26 10:57:13;;;;;;;1999.90;999.90;;;14.00;99.50;;;;;;5004835;28;20050;-70
2021/03/26 10:59:51;;;;;;;1999.90;999.90;;;13.90;98.80;;;;;;5007235;28;20053;-70
2021/03/26 11:02:53;;;;;;;1999.90;999.90;;;13.70;98.40;;;;;;4987771;28;21265;-69
2021/03/26 11:05:36;;;;;;;1999.90;999.90;;;13.60;98.00;;;;;;5005099;28;20050;-69
2021/03/26 11:08:02;;;;;;;1999.90;999.90;;;13.50;98.50;;;;;;4981756;28;20071;-70
2021/03/26 11:10:38;;;;;;;1999.90;999.90;;;13.50;99.00;;;;;;4988867;28;20049;-70
2021/03/26 11:13:22;;;;;;;1999.90;999.90;;;13.50;98.90;;;;;;4987591;28;20046;-69
2021/03/26 11:15:58;;;;;;;1999.90;999.90;;;13.80;99.90;;;;;;4999787;28;20060;-70
2021/03/26 11:18:35;;;;;;;1999.90;999.90;;;14.20;97.80;;;;;;4983880;28;20065;-70
2021/03/26 11:21:07;;;;;;;1999.90;999.90;;;14.20;97.10;;;;;;4995735;28;20066;-70
2021/03/26 11:23:38;;;;;;;1999.90;999.90;;;14.00;97.00;;;;;;4998032;28;20046;-70
2021/03/26 11:26:04;;;;;;;1999.90;999.90;;;13.80;96.60;;;;;;4999330;28;20054;-69
2021/03/26 11:28:52;;;;;;;1999.90;999.90;;;13.80;97.40;;;;;;4984927;28;20073;-70
2021/03/26 11:31:34;;;;;;;1999.90;999.90;;;13.80;96.40;;;;;;5001587;28;20048;-69
2021/03/26 11:34:12;;;;;;;1999.90;999.90;;;13.70;97.00;;;;;;4997174;28;20472;-69
2021/03/26 11:36:46;;;;;;;1999.90;999.90;;;14.00;97.60;;;;;;4996072;28;20146;-69
2021/03/26 11:39:12;;;;;;;1999.90;999.90;;;14.30;96.90;;;;;;5081056;27;20315;-69
2021/03/26 11:41:54;;;;;;;1999.90;999.90;;;14.60;97.20;;;;;;4996757;28;20042;-69
2021/03/26 11:44:27;;;;;;;1999.90;999.90;;;15.00;97.80;;;;;;4997696;28;20412;-70
2021/03/26 11:46:58;;;;;;;1999.90;999.90;;;15.20;96.10;;;;;;4979236;28;20420;-70
2021/03/26 11:49:31;;;;;;;1999.90;999.90;;;15.10;95.20;;;;;;4981708;28;20049;-70
2021/03/26 11:52:16;;;;;;;1999.90;999.90;;;15.00;95.50;;;;;;4998432;28;20068;-70
2021/03/26 11:55:08;;;;;;;1999.90;999.90;;;15.10;94.60;;;;;;4999260;28;20054;-70
2021/03/26 11:58:04;;;;;;;1999.90;999.90;;;15.10;95.30;;;;;;5002827;28;20042;-69
2021/03/26 12:00:37;;;;;;;1999.90;999.90;;;15.40;95.00;;;;;;4983089;28;20052;-70
2021/03/26 12:03:32;;;;;;;1999.90;999.90;;;15.20;94.70;;;;;;4996654;28;20422;-70
2021/03/26 12:06:07;;;;;;;1999.90;999.90;;;15.10;94.10;;;;;;4994918;28;20149;-70
2021/03/26 12:09:10;;;;;;;1999.90;999.90;;;15.10;95.40;;;;;;4999651;28;20046;-70
2021/03/26 12:12:08;;;;;;;1999.90;999.90;;;15.20;94.00;;;;;;4981227;28;20056;-70
2021/03/26 12:14:49;;;;;;;1999.90;999.90;;;15.20;94.50;;;;;;5000174;28;20042;-70
2021/03/26 12:17:31;;;;;;;1999.90;999.90;;;15.20;94.60;;;;;;5079919;27;20456;-70
2021/03/26 12:20:00;;;;;;;1999.90;999.90;;;15.10;94.70;;;;;;4985171;28;20061;-70
2021/03/26 12:22:46;;;;;;;1999.90;999.90;;;15.20;92.90;;;;;;4998997;28;20512;-70
2021/03/26 12:25:23;;;;;;;1999.90;999.90;;;15.30;93.80;;;;;;4996175;28;20090;-70
2021/03/26 12:27:53;;;;;;;1999.90;999.90;;;15.30;94.10;;;;;;4995269;28;20144;-70
2021/03/26 12:30:47;;;;;;;1999.90;999.90;;;15.30;94.40;;;;;;4998736;28;20428;-69
2021/03/26 12:33:42;;;;;;;1999.90;999.90;;;15.30;94.10;;;;;;4999066;28;20045;-70
2021/03/26 12:36:13;;;;;;;1999.90;999.90;;;15.40;95.10;;;;;;5005259;28;20466;-70
2021/03/26 12:39:01;;;;;;;1999.90;999.90;;;15.30;93.20;;;;;;5002676;28;20045;-70
2021/03/26 12:41:49;;;;;;;1999.90;999.90;;;15.00;93.40;;;;;;4999615;28;20052;-70
2021/03/26 12:44:21;;;;;;;1999.90;999.90;;;14.70;93.70;;;;;;4985417;28;20058;-70
2021/03/26 12:47:05;;;;;;;1999.90;999.90;;;14.60;93.00;;;;;;5006294;28;20122;-69
2021/03/26 12:49:38;;;;;;;1999.90;999.90;;;14.60;92.70;;;;;;5001187;28;20049;-70
2021/03/26 12:52:34;;;;;;;1999.90;999.90;;;14.60;93.60;;;;;;5004924;28;20057;-69
2021/03/26 12:55:09;;;;;;;1999.90;999.90;;;14.70;93.20;;;;;;5005053;28;20053;-70
2021/03/26 12:57:41;;;;;;;1999.90;999.90;;;14.80;92.00;;;;;;4984944;28;20053;-69
2021/03/26 13:00:10;;;;;;;1999.90;999.90;;;14.90;92.20;;;;;;4999537;28;20038;-70
2021/03/26 13:02:52;;;;;;;;;;;15.00;90.80;;;;;;4998735;28;20759;-70
2021/03/26 13:05:29;;;;;;;1999.90;999.90;;;15.10;90.50;;;;;;5002389;28;19950;-69
2021/03/26 13:08:11;;;;;;;1999.90;999.90;;;15.20;91.90;;;;;;5000813;28;20072;-69
2021/03/26 13:10:44;;;;;;;1999.90;999.90;;;15.10;90.60;;;;;;5002160;28;20049;-70
2021/03/26 13:13:29;;;;;;;1999.90;999.90;;;15.20;91.50;;;;;;5000918;28;20069;-70
2021/03/26 13:16:34;;;;;;;1999.90;999.90;;;15.30;91.40;;;;;;4999021;28;20080;-69
2021/03/26 13:19:05;;;;;;;1999.90;999.90;;;15.30;90.60;;;;;;5002176;28;20056;-70
2021/03/26 13:21:34;;;;;;;1999.90;999.90;;;15.30;91.00;;;;;;4980911;28;20064;-70
2021/03/26 13:24:41;;;;;;;1999.90;999.90;;;15.30;90.80;;;;;;4996149;28;20150;-69
2021/03/26 13:27:22;;;;;;;1999.90;999.90;;;15.30;90.00;;;;;;4998586;28;20142;-69